Axtell, UT

7:07 AM MDT on August 27, 2014 (GMT -0600)
Carbon County | Change Station
CLOSE
Current Station
Airport
Location: Price,
Elevation: 5955 ft
Nearby Weather Stations

Elev 5955 ft 39.61 °N, 110.75 °W | Updated 14 minutes ago

Overcast
Overcast
57 °F
Feels Like 57 °F
N
4
Wind Variable Wind from NNE

Today
High -- | Low -- °F
--% Chance of Precip.
Yesterday
High -- | Low -- °F
Precip. -- in
6:51 AM 8:05 PM
Waxing Crescent, 3% visible
Pressure 30.11 in
Visibility 10.0 miles
Clouds Overcast 9500 ft
Dew Point 50 °F
Humidity 77%
Rainfall 0.00 in
Snow Depth 0 in
UV 0 out of 12
Pollen 7.70 out of 12
Air Quality Not available.
Flu Activity Not available.
METAR KPUC 271253Z AUTO 03003KT 10SM OVC095 14/10 A3025 RMK AO2 SLP194 T01390100

More Conditions Fewer Conditions

Pressure 30.11 in
Visibility 10.0 miles
Clouds Overcast 9500 ft
Dew Point 50 °F
Humidity 77%
Rainfall 0.00 in
Snow Depth 0 in
UV 0 out of 12
Pollen 7.70 out of 12
Air Quality Not available.
Flu Activity Not available.
METAR KPUC 271253Z AUTO 03003KT 10SM OVC095 14/10 A3025 RMK AO2 SLP194 T01390100

More Conditions Fewer Conditions

10-Day Weather Forecast

Almanac

Astronomy

Aug. 27, 2014 Rise Set
Actual Time 6:51 AM MDT 8:05 PM MDT
Civil Twilight 6:23 AM MDT 8:32 PM MDT
Nautical Twilight 5:50 AM MDT 9:05 PM MDT
Astronomical Twilight 5:15 AM MDT 9:40 PM MDT
Moon 8:49 AM MDT 9:00 PM MDT
Length of Visible Light 14h 09m
Length of Day
13h 13m
Tomorrow will be 2m 25s shorter.
Waxing Crescent, 3% of the Moon is Illuminated
Today
Waxing Crescent
Sep 2
First Quarter
Sep 8
Full
Sep 15
Last Quarter
Sep 24
New

Today's Extremes

State Highs State Lows

Community

WunderPhotos

Upload Photos

1,747,680 photos uploaded!

Nearby

Snow Depth

Station Depth Elevation
Pickle Keg 0 in 9600 ft
Seeley Creek 0 in 10000 ft
Farnsworth Lake 0 in 9600 ft
Black Flat-U.M. Creek 0 in 9400 ft
Red Pine Ridge 0 in 9200 ft

Earthquake Activity

City Distance Mag. Time & Date
No recent earthquake activity has been reported nearby.
Minimum magnitude displayed is 2.5.

Coastal Water Temperatures

Place Temperature
No Stations Reporting

Nearby Weather Stations